createdAt,value
2022-11-28T00:03:43.842Z,99278.91
2022-11-28T00:09:08.236Z,99282.45
2022-11-28T00:14:30.364Z,99281.16
2022-11-28T00:19:52.092Z,99274.06
2022-11-28T00:25:14.526Z,99269.69
2022-11-28T00:30:37.761Z,99268.31
2022-11-28T00:36:01.596Z,99263.80
2022-11-28T00:41:25.852Z,99257.67
2022-11-28T00:46:47.961Z,99255.92
2022-11-28T00:52:09.991Z,99250.79
2022-11-28T00:57:32.121Z,99243.66
2022-11-28T01:02:54.149Z,99238.70
2022-11-28T01:08:18.389Z,99229.86
2022-11-28T01:13:41.121Z,99231.55
2022-11-28T01:19:03.054Z,99221.48
2022-11-28T01:24:24.978Z,99224.48
2022-11-28T01:29:46.708Z,99219.91
2022-11-28T01:35:09.238Z,99218.94
2022-11-28T01:40:31.277Z,99210.10
2022-11-28T01:45:54.002Z,99191.95
2022-11-28T01:51:15.938Z,99180.02
2022-11-28T01:56:48.825Z,99169.05
2022-11-28T02:02:17.059Z,99159.17
2022-11-28T02:07:39.512Z,99160.05
2022-11-28T02:13:16.380Z,99170.13
2022-11-28T02:19:00.370Z,99160.36
2022-11-28T02:24:57.861Z,99161.20
2022-11-28T02:30:49.959Z,99151.16
2022-11-28T02:36:31.958Z,99149.51
2022-11-28T02:42:20.806Z,99148.33
2022-11-28T02:47:46.026Z,99144.74
2022-11-28T02:53:13.219Z,99142.82
2022-11-28T02:58:36.403Z,99143.17
2022-11-28T03:04:17.298Z,99144.34
2022-11-28T03:09:58.957Z,99138.61
2022-11-28T03:15:24.542Z,99130.15
2022-11-28T03:20:54.698Z,99123.35
2022-11-28T03:26:29.304Z,99119.23
2022-11-28T03:31:55.966Z,99118.88
2022-11-28T03:37:23.696Z,99116.16
2022-11-28T03:42:50.347Z,99109.30
2022-11-28T03:48:33.316Z,99105.23
2022-11-28T03:54:16.833Z,99101.20
2022-11-28T03:59:43.714Z,99100.98
2022-11-28T04:05:21.770Z,99099.31
2022-11-28T04:11:09.199Z,99097.21
2022-11-28T04:17:04.161Z,99099.30
2022-11-28T04:22:32.173Z,99096.40
2022-11-28T04:27:59.056Z,99091.98
2022-11-28T04:33:23.453Z,99094.66
2022-11-28T04:38:49.546Z,99100.38
2022-11-28T04:44:36.551Z,99099.46
2022-11-28T04:49:58.652Z,99099.06
2022-11-28T04:55:33.823Z,99094.99
2022-11-28T05:00:56.208Z,99096.91
2022-11-28T05:06:29.758Z,99096.65
2022-11-28T05:11:51.334Z,99099.23
2022-11-28T05:17:13.700Z,99098.66
2022-11-28T05:22:35.409Z,99096.68
2022-11-28T05:27:57.343Z,99096.31
2022-11-28T05:33:19.248Z,99096.50
2022-11-28T05:38:42.126Z,99095.61
2022-11-28T05:44:03.932Z,99095.02
2022-11-28T05:49:26.480Z,99091.32
2022-11-28T05:54:48.089Z,99091.06
2022-11-28T06:00:10.711Z,99086.60
2022-11-28T06:05:43.745Z,99082.38
2022-11-28T06:11:07.022Z,99082.33
2022-11-28T06:16:30.565Z,99083.21
2022-11-28T06:21:52.465Z,99072.48
2022-11-28T06:27:13.915Z,99077.60
2022-11-28T06:32:35.537Z,99079.16
2022-11-28T06:37:57.772Z,99081.04
2022-11-28T06:43:19.911Z,99083.41
2022-11-28T06:48:41.539Z,99080.92
2022-11-28T06:54:03.662Z,99079.88
2022-11-28T06:59:25.554Z,99075.30
2022-11-28T07:04:47.526Z,99069.95
2022-11-28T07:10:10.264Z,99067.98
2022-11-28T07:15:31.981Z,99066.84
2022-11-28T07:20:54.112Z,99065.24
2022-11-28T07:26:18.137Z,99061.75
2022-11-28T07:31:39.943Z,99058.94
2022-11-28T07:37:02.207Z,99052.25
2022-11-28T07:42:24.347Z,99051.25
2022-11-28T07:47:55.599Z,99046.96
2022-11-28T07:53:17.333Z,99042.52
2022-11-28T07:58:40.062Z,99042.17
2022-11-28T08:04:04.380Z,99033.71
2022-11-28T08:09:26.028Z,99028.71
2022-11-28T08:14:48.255Z,99025.80
2022-11-28T08:20:10.690Z,99021.53
2022-11-28T08:25:32.829Z,99022.54
2022-11-28T08:30:55.103Z,99018.80
2022-11-28T08:36:17.745Z,99025.02
2022-11-28T08:41:39.452Z,99028.55
2022-11-28T08:47:01.335Z,99026.65
2022-11-28T08:52:24.345Z,99027.36
2022-11-28T08:57:46.500Z,99032.71
2022-11-28T09:03:14.253Z,99031.65
2022-11-28T09:08:35.943Z,99028.20
2022-11-28T09:13:57.908Z,99021.27
2022-11-28T09:19:19.840Z,99012.54
2022-11-28T09:24:41.666Z,99005.33
2022-11-28T09:30:03.848Z,99001.51
2022-11-28T09:35:25.768Z,99001.08
2022-11-28T09:40:48.094Z,98997.13
2022-11-28T09:46:23.034Z,98993.24
2022-11-28T09:52:03.856Z,98986.53
2022-11-28T09:57:39.609Z,98977.06
2022-11-28T10:03:10.546Z,98970.25
2022-11-28T10:08:50.153Z,98963.32
2022-11-28T10:14:57.431Z,98959.95
2022-11-28T10:20:25.074Z,98951.59
2022-11-28T10:25:50.912Z,98947.70
2022-11-28T10:31:27.873Z,98943.82
2022-11-28T10:37:16.278Z,98938.58
2022-11-28T10:42:57.643Z,98934.75
2022-11-28T10:48:41.985Z,98932.73
2022-11-28T10:54:07.000Z,98926.61
2022-11-28T10:59:44.486Z,98919.95
2022-11-28T11:05:13.308Z,98912.27
2022-11-28T11:10:49.755Z,98905.84
2022-11-28T11:16:11.677Z,98907.94
2022-11-28T11:21:33.430Z,98900.43
2022-11-28T11:27:03.761Z,98902.27
2022-11-28T11:32:29.866Z,98902.08
2022-11-28T11:37:52.944Z,98897.33
2022-11-28T11:43:32.626Z,98894.56
2022-11-28T11:48:54.956Z,98892.95
2022-11-28T11:54:17.783Z,98894.13
2022-11-28T11:59:44.982Z,98891.46
2022-11-28T12:05:16.731Z,98886.61
2022-11-28T12:10:48.682Z,98882.06
2022-11-28T12:16:32.632Z,98879.55
2022-11-28T12:22:12.247Z,98872.51
2022-11-28T12:28:16.336Z,98872.27
2022-11-28T12:33:56.627Z,98870.92
2022-11-28T12:39:35.552Z,98867.05
2022-11-28T12:45:08.697Z,98865.51
2022-11-28T12:50:38.592Z,98860.95
2022-11-28T12:56:15.918Z,98860.19
2022-11-28T13:01:50.321Z,98848.45
2022-11-28T13:07:33.905Z,98843.67
2022-11-28T13:13:02.258Z,98842.85
2022-11-28T13:18:33.117Z,98840.27
2022-11-28T13:24:15.143Z,98835.55
2022-11-28T13:29:48.661Z,98832.88
2022-11-28T13:35:12.926Z,98831.95
2022-11-28T13:40:42.101Z,98830.05
2022-11-28T13:46:04.024Z,98825.75
2022-11-28T13:51:32.718Z,98825.68
2022-11-28T13:57:13.667Z,98824.84
2022-11-28T14:02:38.457Z,98823.35
2022-11-28T14:08:01.334Z,98819.27
2022-11-28T14:13:48.331Z,98820.31
2022-11-28T14:19:37.476Z,98820.91
2022-11-28T14:25:05.725Z,98815.41
2022-11-28T14:30:37.689Z,98813.01
2022-11-28T14:36:06.104Z,98810.92
2022-11-28T14:41:27.832Z,98804.27
2022-11-28T14:47:13.884Z,98805.64
2022-11-28T14:52:39.463Z,98810.77
2022-11-28T14:58:05.315Z,98815.00
2022-11-28T15:03:50.422Z,98818.55
2022-11-28T15:09:29.868Z,98814.90
2022-11-28T15:14:56.323Z,98816.19
2022-11-28T15:20:32.091Z,98824.61
2022-11-28T15:25:56.662Z,98829.06
2022-11-28T15:31:22.443Z,98831.80
2022-11-28T15:36:44.499Z,98827.81
2022-11-28T15:42:21.334Z,98827.45
2022-11-28T15:47:46.650Z,98827.98
2022-11-28T15:53:19.807Z,98834.19
2022-11-28T15:58:44.141Z,98837.61
2022-11-28T16:04:10.874Z,98839.30
2022-11-28T16:09:35.168Z,98839.30
2022-11-28T16:15:01.950Z,98839.04
2022-11-28T16:20:27.134Z,98843.96
2022-11-28T16:26:21.616Z,98843.68
2022-11-28T16:31:44.836Z,98843.16
2022-11-28T16:37:11.259Z,98849.08
2022-11-28T16:42:34.329Z,98846.83
2022-11-28T16:48:02.486Z,98849.10
2022-11-28T16:53:55.298Z,98855.11
2022-11-28T16:59:20.204Z,98853.52
2022-11-28T17:04:42.148Z,98853.38
2022-11-28T17:10:04.820Z,98849.34
2022-11-28T17:15:26.598Z,98854.52
2022-11-28T17:20:48.578Z,98852.24
2022-11-28T17:26:10.908Z,98851.63
2022-11-28T17:31:32.868Z,98858.85
2022-11-28T17:36:54.665Z,98857.27
2022-11-28T17:42:16.601Z,98853.52
2022-11-28T17:47:43.003Z,98849.82
2022-11-28T17:53:05.407Z,98839.39
2022-11-28T17:58:27.802Z,98839.27
2022-11-28T18:03:49.934Z,98843.44
2022-11-28T18:09:13.937Z,98839.34
2022-11-28T18:14:39.641Z,98840.16
2022-11-28T18:20:02.360Z,98837.23
2022-11-28T18:25:25.996Z,98837.02
2022-11-28T18:30:48.305Z,98836.19
2022-11-28T18:36:19.419Z,98831.98
2022-11-28T18:41:41.905Z,98837.73
2022-11-28T18:47:03.937Z,98841.89
2022-11-28T18:52:25.975Z,98842.73
2022-11-28T18:57:47.656Z,98839.56
2022-11-28T19:03:09.719Z,98847.11
2022-11-28T19:08:31.749Z,98843.37
2022-11-28T19:13:53.722Z,98844.22
2022-11-28T19:19:16.410Z,98840.45
2022-11-28T19:24:38.704Z,98840.73
2022-11-28T19:30:01.042Z,98838.25
2022-11-28T19:35:24.106Z,98843.41
2022-11-28T19:40:45.943Z,98839.30
2022-11-28T19:46:08.532Z,98842.23
2022-11-28T19:51:30.798Z,98839.70
2022-11-28T19:56:53.031Z,98845.27
2022-11-28T20:02:15.545Z,98854.30
2022-11-28T20:07:38.116Z,98863.64
2022-11-28T20:13:00.222Z,98861.61
2022-11-28T20:18:23.472Z,98869.41
2022-11-28T20:23:51.397Z,98872.33
2022-11-28T20:29:16.224Z,98870.33
2022-11-28T20:34:37.959Z,98866.70
2022-11-28T20:39:59.952Z,98865.83
2022-11-28T20:45:22.054Z,98862.89
2022-11-28T20:50:43.938Z,98862.71
2022-11-28T20:56:08.019Z,98865.08
2022-11-28T21:01:34.903Z,98870.02
2022-11-28T21:06:56.903Z,98862.29
2022-11-28T21:12:21.107Z,98871.25
2022-11-28T21:17:43.344Z,98867.34
2022-11-28T21:23:05.374Z,98869.83
2022-11-28T21:28:27.081Z,98871.17
2022-11-28T21:33:49.490Z,98882.23
2022-11-28T21:39:16.595Z,98885.07
2022-11-28T21:44:38.569Z,98884.95
2022-11-28T21:50:00.516Z,98884.70
2022-11-28T21:55:22.263Z,98883.41
2022-11-28T22:00:53.512Z,98887.06
2022-11-28T22:06:21.824Z,98886.18
2022-11-28T22:11:43.800Z,98880.27
2022-11-28T22:17:05.594Z,98880.63
2022-11-28T22:22:27.753Z,98880.28
2022-11-28T22:27:49.498Z,98880.41
2022-11-28T22:33:11.991Z,98879.86
2022-11-28T22:38:34.642Z,98883.42
2022-11-28T22:43:59.669Z,98883.27
2022-11-28T22:49:22.849Z,98886.87
2022-11-28T22:54:45.100Z,98886.24
2022-11-28T23:00:08.989Z,98888.73
2022-11-28T23:05:31.131Z,98884.23
2022-11-28T23:10:52.961Z,98880.11
2022-11-28T23:16:25.702Z,98881.30
2022-11-28T23:21:50.026Z,98879.64
2022-11-28T23:27:13.948Z,98879.68
2022-11-28T23:32:36.156Z,98876.11
2022-11-28T23:37:58.440Z,98874.15
2022-11-28T23:43:20.294Z,98874.79
2022-11-28T23:48:43.847Z,98870.35
2022-11-28T23:54:06.313Z,98869.77
2022-11-28T23:59:28.262Z,98867.09
